Relampago, Texas
Current Conditions -  °F | °C
As of 6:55 AM on Wednesday 26 Nov 2014 (Local Time) from KT65 Reporting Station
Clear Clear  
Wind Chill:   Ceiling: Unl
Heat Index:   Visibility: 10mi
Dew Point:   Wind: 5mph
Humidity: 80%   Direction: 200°SSW
Pressure: 30.29"   Gusts: NA
Location:  26.1456°N, 97.91°W
Report Text: KT65 261255Z AUTO 20004KT 10SM CLR 08/05 A3029 RMK AO2 T00770045
Loading
Personal Weather Stations






























Interactive Weather Map New forecast layout! Learn more

10-Day Weather Forecast

Advertisements
Track Severe Weather on mobile